メインページ
METAR-TAF:

METAR-TAF

空港 :

Skyhaven Airport

ロチェスター, ニューハンプシャー州, アメリカ合衆国

緯度: 43-16-41N, 経度: 070-55-20W, 海抜: 98m

現時点の気象観測

当レポートは9分前の15:51(UTC)に作成
北西の風 8kt
気温 14°C
湿度 23%
気圧 1011 hPa
視程: 16.1km
高度8000ftの雲はほとんどない

METAR: KDAW 071551Z AUTO 31008KT 10SM FEW080 14/M07 A2984 RMK AO2 SLP103 T01391067

時間: 12:00 (16:00 UTC)


TAF: 見つかりません

4,000以上の空港の気象観測と天気予報(METAR報とTAF報)

利用可能な観測所は地図上に黄色い丸と赤い丸で示す。

丸の上にカーソルを重ねると観測所名を参照できる。

次にクリックすると気象観測と天気予報を参照できる。

マップの切り替え:黒色「×」印の緑ボタンをクリックして拡大、「-」印の緑ボタンをクリックして縮小、緑色の三角印をクリックして隣りの地図に切り替え


METAR-TAF: